Time;durP1;ratioP1;P1;durP2;ratioP2;P2;SDS_P1;SDS_P2;PMS_P1;PMS_P2;Temp;Humidity;BMP_temperature;BMP_pressure;BME280_temperature;BME280_humidity;BME280_pressure;Samples;Min_cycle;Max_cycle;Signal;HPM_P1;HPM_P2
2023/06/28 00:00:21;;;;;;;1.92;1.55;;;19.30;99.90;;;;;;5052067;28;20037;-71
2023/06/28 00:02:46;;;;;;;3.45;2.55;;;19.20;99.90;;;;;;5050522;28;20072;-72
2023/06/28 00:05:12;;;;;;;2.97;2.45;;;19.20;99.90;;;;;;5051202;28;20063;-72
2023/06/28 00:07:39;;;;;;;4.30;3.05;;;19.00;99.90;;;;;;5051077;28;20075;-72
2023/06/28 00:10:05;;;;;;;5.30;2.83;;;19.00;99.90;;;;;;5051060;28;20308;-72
2023/06/28 00:12:32;;;;;;;3.95;3.35;;;19.00;99.90;;;;;;5050871;28;20370;-72
2023/06/28 00:14:59;;;;;;;4.40;2.95;;;19.00;99.90;;;;;;5051394;28;20025;-72
2023/06/28 00:17:28;;;;;;;3.95;3.05;;;18.90;99.90;;;;;;5051136;28;20036;-73
2023/06/28 00:19:59;;;;;;;6.65;4.10;;;18.90;99.90;;;;;;5051554;28;20115;-72
2023/06/28 00:22:29;;;;;;;4.40;3.47;;;18.80;99.90;;;;;;5050775;28;20060;-72
2023/06/28 00:25:01;;;;;;;6.47;3.97;;;18.80;99.90;;;;;;5051280;28;20035;-72
2023/06/28 00:27:27;;;;;;;4.72;3.80;;;18.80;99.90;;;;;;5051199;28;20455;-73
2023/06/28 00:29:55;;;;;;;7.30;3.95;;;18.70;99.90;;;;;;5051131;28;20060;-72
2023/06/28 00:32:21;;;;;;;5.78;4.22;;;18.70;99.90;;;;;;5051149;28;20105;-73
2023/06/28 00:34:47;;;;;;;7.03;5.05;;;18.70;99.90;;;;;;5051165;28;20470;-72
2023/06/28 00:37:13;;;;;;;5.38;4.22;;;18.70;99.90;;;;;;5050704;28;20052;-72
2023/06/28 00:39:39;;;;;;;6.13;4.57;;;18.70;99.90;;;;;;5050463;28;20417;-73
2023/06/28 00:42:05;;;;;;;5.25;3.97;;;18.60;99.90;;;;;;5051123;28;20446;-72
2023/06/28 00:44:31;;;;;;;5.22;4.30;;;18.60;99.90;;;;;;5050381;28;20021;-72
2023/06/28 00:46:58;;;;;;;7.70;5.22;;;18.60;99.90;;;;;;5051490;28;20086;-73
2023/06/28 00:49:27;;;;;;;7.25;5.47;;;18.60;99.90;;;;;;5050535;28;20032;-74
2023/06/28 00:51:54;;;;;;;8.13;5.45;;;18.50;99.90;;;;;;5051492;28;20040;-73
2023/06/28 00:54:19;;;;;;;8.73;5.57;;;18.50;99.90;;;;;;5051194;28;20029;-73
2023/06/28 00:56:48;;;;;;;6.22;5.40;;;18.40;99.90;;;;;;5050464;28;20118;-73
2023/06/28 00:59:15;;;;;;;7.22;5.82;;;18.40;99.90;;;;;;5050733;28;20060;-74
2023/06/28 01:01:41;;;;;;;9.23;5.38;;;18.40;99.90;;;;;;5050064;28;20063;-73
2023/06/28 01:04:07;;;;;;;9.00;5.25;;;18.40;99.90;;;;;;5050550;28;20032;-73
2023/06/28 01:06:35;;;;;;;6.20;4.60;;;18.30;99.90;;;;;;5050087;28;20363;-74
2023/06/28 01:09:04;;;;;;;5.45;4.18;;;18.20;99.90;;;;;;5049021;28;20033;-74
2023/06/28 01:11:31;;;;;;;5.35;4.28;;;18.20;99.90;;;;;;5049957;28;20047;-74
2023/06/28 01:13:58;;;;;;;6.07;3.85;;;18.10;99.90;;;;;;5050388;28;20041;-73
2023/06/28 01:16:24;;;;;;;6.25;3.92;;;18.00;99.90;;;;;;5050359;28;20044;-77
2023/06/28 01:18:49;;;;;;;5.22;3.40;;;18.00;99.90;;;;;;5049645;28;20110;-74
2023/06/28 01:21:16;;;;;;;6.45;2.92;;;17.90;99.90;;;;;;5050338;28;20442;-74
2023/06/28 01:23:42;;;;;;;4.22;2.65;;;17.80;99.90;;;;;;5049883;28;20399;-76
2023/06/28 01:26:08;;;;;;;6.03;2.78;;;17.80;99.90;;;;;;5050761;28;20067;-75
2023/06/28 01:28:36;;;;;;;3.45;2.50;;;17.70;99.90;;;;;;5049662;28;20060;-74
2023/06/28 01:31:03;;;;;;;3.97;2.42;;;17.60;99.90;;;;;;5050227;28;20025;-76
2023/06/28 01:33:29;;;;;;;3.75;2.50;;;17.60;99.90;;;;;;5048312;28;20112;-75
2023/06/28 01:35:58;;;;;;;3.83;2.55;;;17.60;99.90;;;;;;5049863;28;20418;-75
2023/06/28 01:38:27;;;;;;;4.60;2.72;;;17.60;99.90;;;;;;5050056;28;20025;-74
2023/06/28 01:40:54;;;;;;;4.15;2.90;;;17.60;99.90;;;;;;5050011;28;20025;-75
2023/06/28 01:43:21;;;;;;;2.85;2.65;;;17.60;99.90;;;;;;5050210;28;20052;-74
2023/06/28 01:45:49;;;;;;;4.30;3.08;;;17.60;99.90;;;;;;5049412;28;20534;-74
2023/06/28 01:48:16;;;;;;;3.88;2.92;;;17.50;99.90;;;;;;5049801;28;20051;-74
2023/06/28 01:50:42;;;;;;;3.30;2.70;;;17.50;99.90;;;;;;5049612;28;20040;-74
2023/06/28 01:53:08;;;;;;;4.63;3.10;;;17.50;99.90;;;;;;5050443;28;20025;-74
2023/06/28 01:55:34;;;;;;;4.22;2.80;;;17.50;99.90;;;;;;5049016;28;20304;-74
2023/06/28 01:57:59;;;;;;;3.22;2.58;;;17.50;99.90;;;;;;5049801;28;20407;-73
2023/06/28 02:00:26;;;;;;;3.35;2.17;;;17.50;99.90;;;;;;5049605;28;20104;-73
2023/06/28 02:02:52;;;;;;;3.83;2.85;;;17.50;99.90;;;;;;5049484;28;20025;-73
2023/06/28 02:05:19;;;;;;;3.22;2.47;;;17.50;99.90;;;;;;5049888;28;20035;-73
2023/06/28 02:07:44;;;;;;;3.83;2.72;;;17.60;99.90;;;;;;5049004;28;20117;-73
2023/06/28 02:10:10;;;;;;;3.35;2.50;;;17.50;99.90;;;;;;5050103;28;20092;-73
2023/06/28 02:12:36;;;;;;;2.90;2.53;;;17.40;99.90;;;;;;5047841;28;20055;-73
2023/06/28 02:15:04;;;;;;;3.35;3.00;;;17.60;99.90;;;;;;5048181;28;20035;-73
2023/06/28 02:17:30;;;;;;;3.35;2.50;;;17.60;99.90;;;;;;5049320;28;20067;-75
2023/06/28 02:19:56;;;;;;;3.80;2.60;;;17.60;99.90;;;;;;5049724;28;20450;-73
2023/06/28 02:22:22;;;;;;;3.47;2.70;;;17.50;99.90;;;;;;5049556;28;20072;-73
2023/06/28 02:24:48;;;;;;;3.60;2.60;;;17.50;99.90;;;;;;5049247;28;20055;-72
2023/06/28 02:27:15;;;;;;;5.15;3.03;;;17.50;99.90;;;;;;5049264;28;20025;-72
2023/06/28 02:29:40;;;;;;;3.13;2.60;;;17.50;99.90;;;;;;5050792;28;20063;-72
2023/06/28 02:32:06;;;;;;;3.67;3.10;;;17.50;99.90;;;;;;5053282;28;20021;-72
2023/06/28 02:34:32;;;;;;;3.28;2.35;;;17.50;99.90;;;;;;5052709;28;20032;-72
2023/06/28 02:36:58;;;;;;;4.70;3.28;;;17.50;99.90;;;;;;5053535;28;20032;-72
2023/06/28 02:39:24;;;;;;;5.13;3.03;;;17.40;99.90;;;;;;5053057;28;20033;-72
2023/06/28 02:41:50;;;;;;;3.85;2.70;;;17.40;99.90;;;;;;5052465;28;20154;-72
2023/06/28 02:44:16;;;;;;;2.78;2.47;;;17.40;99.90;;;;;;5053347;28;20100;-72
2023/06/28 02:46:42;;;;;;;4.65;2.92;;;17.40;99.90;;;;;;5052503;28;20107;-72
2023/06/28 02:49:08;;;;;;;7.20;3.05;;;17.40;99.90;;;;;;5053462;28;20061;-72
2023/06/28 02:51:34;;;;;;;6.13;2.83;;;17.40;99.90;;;;;;5052584;28;20368;-72
2023/06/28 02:54:00;;;;;;;3.63;2.88;;;17.30;99.90;;;;;;5052837;28;20051;-72
2023/06/28 02:56:25;;;;;;;2.85;2.58;;;17.30;99.90;;;;;;5053189;28;20480;-72
2023/06/28 02:58:52;;;;;;;3.53;2.60;;;17.40;99.90;;;;;;5052080;28;20031;-72
2023/06/28 03:01:20;;;;;;;4.82;2.80;;;17.40;99.90;;;;;;5052809;28;20021;-72
2023/06/28 03:03:47;;;;;;;3.28;2.42;;;17.40;99.90;;;;;;5052565;28;20055;-72
2023/06/28 03:06:16;;;;;;;4.93;2.70;;;17.50;99.90;;;;;;5053201;28;20025;-72
2023/06/28 03:08:42;;;;;;;5.22;2.75;;;17.50;99.90;;;;;;5052847;28;20025;-72
2023/06/28 03:11:08;;;;;;;3.20;2.90;;;17.50;99.90;;;;;;5052694;28;20454;-72
2023/06/28 03:13:33;;;;;;;5.53;3.10;;;17.50;99.90;;;;;;5052566;28;20141;-74
2023/06/28 03:16:00;;;;;;;3.60;2.47;;;17.60;99.90;;;;;;5052909;28;20162;-73
2023/06/28 03:18:26;;;;;;;3.95;3.05;;;17.50;99.90;;;;;;5051342;28;20021;-74
2023/06/28 03:20:51;;;;;;;5.53;2.90;;;17.60;99.90;;;;;;5050668;28;20094;-73
2023/06/28 03:23:17;;;;;;;5.93;2.83;;;17.50;99.90;;;;;;5052342;28;20111;-72
2023/06/28 03:25:43;;;;;;;2.97;2.70;;;17.50;99.90;;;;;;5050644;28;20032;-72
2023/06/28 03:28:11;;;;;;;3.42;2.80;;;17.50;99.90;;;;;;5052489;28;20099;-72
2023/06/28 03:30:38;;;;;;;4.18;2.88;;;17.40;99.90;;;;;;5050413;28;20045;-74
2023/06/28 03:33:03;;;;;;;4.03;2.90;;;17.50;99.90;;;;;;5052328;28;20029;-72
2023/06/28 03:35:29;;;;;;;5.97;2.42;;;17.50;99.90;;;;;;5052530;28;20024;-73
2023/06/28 03:37:56;;;;;;;5.78;2.90;;;17.40;99.90;;;;;;5051672;28;20033;-74
2023/06/28 03:40:22;;;;;;;3.20;2.42;;;17.50;99.90;;;;;;5051860;28;20470;-72
2023/06/28 03:42:48;;;;;;;3.95;2.80;;;17.50;99.90;;;;;;5051392;28;20403;-73
2023/06/28 03:45:15;;;;;;;3.40;2.40;;;17.50;99.90;;;;;;5052201;28;20025;-72
2023/06/28 03:47:41;;;;;;;4.57;3.13;;;17.50;99.90;;;;;;5051251;28;20028;-73
2023/06/28 03:50:07;;;;;;;4.75;2.92;;;17.40;99.90;;;;;;5052293;28;20121;-72
2023/06/28 03:52:36;;;;;;;4.47;3.28;;;17.40;99.90;;;;;;5050877;28;20064;-72
2023/06/28 03:55:02;;;;;;;3.58;2.63;;;17.40;99.90;;;;;;5052063;28;20029;-73
2023/06/28 03:57:29;;;;;;;4.45;3.05;;;17.40;99.90;;;;;;5051926;28;20025;-72
2023/06/28 03:59:55;;;;;;;4.32;2.97;;;17.50;99.90;;;;;;5051016;28;20044;-72
2023/06/28 04:02:21;;;;;;;2.50;2.30;;;17.50;99.90;;;;;;5051669;28;20491;-72
2023/06/28 04:04:47;;;;;;;6.15;2.90;;;17.50;99.90;;;;;;5051212;28;20090;-73
2023/06/28 04:07:13;;;;;;;4.82;2.75;;;17.60;99.90;;;;;;5051640;28;20108;-73
2023/06/28 04:09:39;;;;;;;2.90;2.50;;;17.60;99.90;;;;;;5051147;28;20036;-73
2023/06/28 04:12:06;;;;;;;4.63;2.92;;;17.60;99.90;;;;;;5051360;28;20084;-72
2023/06/28 04:14:31;;;;;;;2.85;2.47;;;17.60;99.90;;;;;;5051580;28;20108;-72
2023/06/28 04:16:57;;;;;;;4.25;2.47;;;17.60;99.90;;;;;;5050795;28;20075;-72
2023/06/28 04:19:23;;;;;;;3.10;2.60;;;17.60;99.90;;;;;;5051547;28;20415;-72
2023/06/28 04:21:49;;;;;;;2.90;2.40;;;17.60;99.90;;;;;;5051022;28;20032;-73
2023/06/28 04:24:14;;;;;;;2.65;2.42;;;17.60;99.90;;;;;;5051065;28;20033;-72
2023/06/28 04:26:40;;;;;;;3.20;2.50;;;17.60;99.90;;;;;;5050930;28;20029;-73
2023/06/28 04:29:06;;;;;;;3.13;2.58;;;17.60;99.90;;;;;;5049646;28;20482;-72
2023/06/28 04:31:32;;;;;;;4.20;2.60;;;17.70;99.90;;;;;;5050890;28;20021;-72
2023/06/28 04:33:59;;;;;;;2.53;2.10;;;17.70;99.90;;;;;;5050891;28;20187;-72
2023/06/28 04:36:25;;;;;;;3.20;2.60;;;17.70;99.90;;;;;;5051285;28;20057;-72
2023/06/28 04:38:52;;;;;;;3.28;2.72;;;17.70;99.90;;;;;;5050643;28;20068;-72
2023/06/28 04:41:19;;;;;;;4.35;3.05;;;17.70;99.90;;;;;;5051156;28;20052;-72
2023/06/28 04:43:46;;;;;;;4.00;2.78;;;17.60;99.90;;;;;;5050135;28;20417;-72
2023/06/28 04:46:12;;;;;;;4.47;2.83;;;17.60;99.90;;;;;;5051169;28;20053;-72
2023/06/28 04:48:40;;;;;;;2.67;2.45;;;17.60;99.90;;;;;;5050573;28;20033;-74
2023/06/28 04:51:05;;;;;;;5.07;3.00;;;17.60;99.90;;;;;;5050974;28;20029;-72
2023/06/28 04:53:31;;;;;;;5.88;3.53;;;17.60;99.90;;;;;;5050555;28;20104;-72
2023/06/28 04:56:00;;;;;;;3.78;2.97;;;17.60;99.90;;;;;;5049026;28;20028;-72
2023/06/28 04:58:26;;;;;;;4.70;2.90;;;17.60;99.90;;;;;;5050774;28;20033;-72
2023/06/28 05:00:52;;;;;;;2.92;2.60;;;17.70;99.90;;;;;;5050810;28;20439;-72
2023/06/28 05:03:17;;;;;;;3.15;2.70;;;17.70;99.90;;;;;;5050644;28;20462;-72
2023/06/28 05:05:43;;;;;;;3.75;2.72;;;17.60;99.90;;;;;;5050500;28;20052;-73
2023/06/28 05:08:09;;;;;;;4.55;2.92;;;17.60;99.90;;;;;;5050892;28;20369;-73
2023/06/28 05:10:36;;;;;;;5.20;3.35;;;17.70;99.90;;;;;;5050587;28;20036;-73
2023/06/28 05:13:02;;;;;;;3.75;3.22;;;17.70;99.90;;;;;;5049099;28;20029;-73
2023/06/28 05:15:32;;;;;;;4.13;3.33;;;17.70;99.90;;;;;;5050820;28;20128;-73
2023/06/28 05:17:58;;;;;;;5.13;3.20;;;17.70;99.90;;;;;;5050071;28;20079;-73
2023/06/28 05:20:24;;;;;;;6.95;3.15;;;17.70;99.90;;;;;;5050680;28;20039;-73
2023/06/28 05:23:07;;;;;;;6.82;3.63;;;17.70;99.90;;;;;;5048720;28;20021;-73
2023/06/28 05:25:32;;;;;;;3.95;2.90;;;17.70;99.90;;;;;;5050381;28;20029;-73
2023/06/28 05:27:58;;;;;;;4.35;3.50;;;17.60;99.90;;;;;;5049334;28;20040;-74
2023/06/28 05:30:24;;;;;;;3.90;3.38;;;17.70;99.90;;;;;;5050050;28;20526;-73
2023/06/28 05:32:49;;;;;;;4.07;3.15;;;17.70;99.90;;;;;;5049434;28;20049;-73
2023/06/28 05:35:15;;;;;;;4.88;3.22;;;17.80;99.90;;;;;;5049945;28;20025;-73
2023/06/28 05:37:41;;;;;;;5.40;3.60;;;17.70;99.90;;;;;;5049883;28;20100;-75
2023/06/28 05:40:08;;;;;;;3.95;3.53;;;17.70;99.90;;;;;;5049590;28;20128;-73
2023/06/28 05:42:34;;;;;;;4.18;3.08;;;17.80;99.90;;;;;;5050073;28;20090;-73
2023/06/28 05:45:00;;;;;;;3.58;3.28;;;17.90;99.90;;;;;;5049934;28;20435;-73
2023/06/28 05:47:25;;;;;;;4.03;3.25;;;18.00;99.90;;;;;;5049890;28;20103;-73
2023/06/28 05:49:51;;;;;;;6.03;4.18;;;18.00;99.90;;;;;;5049328;28;20029;-73
2023/06/28 05:52:17;;;;;;;6.70;3.55;;;18.10;99.90;;;;;;5050633;28;20044;-73
2023/06/28 05:54:42;;;;;;;5.18;3.70;;;18.00;99.90;;;;;;5049945;28;20033;-75
2023/06/28 05:57:08;;;;;;;6.22;3.50;;;18.00;99.90;;;;;;5049734;28;20029;-73
2023/06/28 05:59:34;;;;;;;3.63;3.33;;;17.90;99.90;;;;;;5050182;28;20116;-73
2023/06/28 06:02:00;;;;;;;3.85;3.45;;;18.00;99.90;;;;;;5049745;28;20425;-73
2023/06/28 06:04:25;;;;;;;5.85;3.63;;;18.00;99.90;;;;;;5052834;28;20029;-73
2023/06/28 06:06:51;;;;;;;4.85;3.50;;;18.00;99.90;;;;;;5053659;28;20025;-73
2023/06/28 06:09:17;;;;;;;4.47;3.60;;;18.00;99.90;;;;;;5054176;28;20043;-73
2023/06/28 06:11:42;;;;;;;5.75;3.75;;;18.10;99.90;;;;;;5053912;28;20029;-74
2023/06/28 06:14:09;;;;;;;4.20;3.00;;;18.20;99.90;;;;;;5053204;28;20370;-73
2023/06/28 06:16:34;;;;;;;4.50;3.47;;;18.30;99.90;;;;;;5052667;28;20032;-73
2023/06/28 06:19:00;;;;;;;5.63;3.30;;;18.40;99.90;;;;;;5053172;28;20029;-73
2023/06/28 06:21:26;;;;;;;3.80;2.90;;;18.50;99.90;;;;;;5052368;28;20493;-73
2023/06/28 06:23:51;;;;;;;3.95;2.72;;;18.60;99.90;;;;;;5053035;28;20039;-73
2023/06/28 06:26:17;;;;;;;4.25;2.63;;;18.70;99.90;;;;;;5053813;28;20094;-73
2023/06/28 06:28:43;;;;;;;3.22;2.92;;;18.70;99.90;;;;;;5053388;28;20366;-72
2023/06/28 06:31:13;;;;;;;3.78;2.78;;;18.80;99.90;;;;;;5053161;28;20065;-73
2023/06/28 06:33:40;;;;;;;3.28;2.97;;;18.80;99.90;;;;;;5053313;28;20079;-73
2023/06/28 06:36:06;;;;;;;4.70;3.33;;;18.80;99.90;;;;;;5052813;28;20478;-73
2023/06/28 06:38:31;;;;;;;4.18;3.00;;;18.80;99.90;;;;;;5053508;28;20147;-73
2023/06/28 06:40:57;;;;;;;5.15;3.35;;;18.90;99.90;;;;;;5052680;28;20033;-73
2023/06/28 06:43:23;;;;;;;6.68;3.08;;;18.90;99.90;;;;;;5053266;28;20111;-73
2023/06/28 06:45:48;;;;;;;4.65;3.10;;;18.90;99.90;;;;;;5052556;28;20029;-73
2023/06/28 06:48:14;;;;;;;4.95;2.40;;;19.00;99.90;;;;;;5053485;28;20032;-73
2023/06/28 06:50:40;;;;;;;6.47;2.83;;;18.90;99.90;;;;;;5053344;28;20044;-73
2023/06/28 06:53:05;;;;;;;4.05;2.97;;;19.00;99.90;;;;;;5052495;28;20612;-73
2023/06/28 06:55:32;;;;;;;3.55;2.50;;;19.00;99.90;;;;;;5052911;28;20025;-73
2023/06/28 06:57:58;;;;;;;2.20;2.00;;;19.00;99.90;;;;;;5052870;28;20351;-72
2023/06/28 07:00:24;;;;;;;5.65;2.20;;;19.10;99.90;;;;;;5052777;28;20066;-73
2023/06/28 07:02:50;;;;;;;2.75;2.30;;;19.10;99.90;;;;;;5052553;28;20024;-72
2023/06/28 07:05:15;;;;;;;5.70;2.25;;;19.10;99.90;;;;;;5053259;28;20351;-73
2023/06/28 07:07:42;;;;;;;3.33;2.33;;;19.10;99.90;;;;;;5052858;28;20068;-72
2023/06/28 07:10:08;;;;;;;3.17;2.10;;;19.10;99.90;;;;;;5051089;28;20028;-73
2023/06/28 07:12:34;;;;;;;3.50;2.15;;;19.20;99.90;;;;;;5052981;28;20104;-73
2023/06/28 07:15:00;;;;;;;2.55;2.03;;;19.10;99.90;;;;;;5051300;28;20304;-74
2023/06/28 07:17:26;;;;;;;5.28;2.60;;;19.20;99.90;;;;;;5053129;28;20036;-73
2023/06/28 07:19:51;;;;;;;4.25;2.03;;;19.30;99.90;;;;;;5051915;28;20033;-73
2023/06/28 07:22:17;;;;;;;4.25;2.50;;;19.30;99.90;;;;;;5052597;28;20037;-73
2023/06/28 07:24:43;;;;;;;3.85;2.30;;;19.20;99.90;;;;;;5052584;28;20025;-73
2023/06/28 07:27:09;;;;;;;5.93;2.13;;;19.40;99.90;;;;;;5051680;28;20029;-73
2023/06/28 07:29:35;;;;;;;6.07;2.13;;;19.40;99.90;;;;;;5052515;28;20071;-73
2023/06/28 07:32:01;;;;;;;2.67;1.98;;;19.40;99.90;;;;;;5051649;28;20021;-73
2023/06/28 07:34:27;;;;;;;4.20;2.10;;;19.40;99.90;;;;;;5052160;28;20363;-73
2023/06/28 07:36:53;;;;;;;2.45;1.80;;;19.40;99.90;;;;;;5051730;28;20040;-73
2023/06/28 07:39:19;;;;;;;3.17;1.58;;;19.40;99.90;;;;;;5051941;28;20043;-72
2023/06/28 07:41:44;;;;;;;4.55;1.67;;;19.40;99.90;;;;;;5051882;28;20021;-73
2023/06/28 07:44:10;;;;;;;5.75;2.28;;;19.30;99.90;;;;;;5051126;28;20025;-73
2023/06/28 07:46:36;;;;;;;2.75;1.90;;;19.30;99.90;;;;;;5051576;28;20076;-72
2023/06/28 07:49:02;;;;;;;3.25;1.83;;;19.20;99.90;;;;;;5051445;28;20076;-73
2023/06/28 07:51:27;;;;;;;3.53;1.92;;;19.20;99.90;;;;;;5050908;28;20021;-73
2023/06/28 07:53:53;;;;;;;7.45;2.22;;;19.10;99.90;;;;;;5051625;28;20053;-73
2023/06/28 07:56:19;;;;;;;3.33;1.70;;;19.00;99.90;;;;;;5052140;28;20029;-72
2023/06/28 07:58:45;;;;;;;2.20;2.00;;;19.00;99.90;;;;;;5052138;28;20033;-73
2023/06/28 08:01:11;;;;;;;4.57;2.13;;;19.00;99.90;;;;;;5050894;28;20032;-74
2023/06/28 08:03:37;;;;;;;4.40;2.25;;;18.90;99.90;;;;;;5051949;28;20163;-73
2023/06/28 08:06:03;;;;;;;2.10;1.70;;;18.90;99.90;;;;;;5051102;28;20025;-74
2023/06/28 08:08:29;;;;;;;3.83;2.40;;;18.90;99.90;;;;;;5052048;28;20513;-74
2023/06/28 08:10:54;;;;;;;3.38;2.35;;;18.90;99.90;;;;;;5051267;28;20163;-74
2023/06/28 08:13:20;;;;;;;5.40;2.58;;;18.90;99.90;;;;;;5050200;28;20336;-73
2023/06/28 08:15:46;;;;;;;2.85;2.40;;;18.80;99.90;;;;;;5051871;28;20132;-74
2023/06/28 08:18:15;;;;;;;6.82;2.58;;;18.90;99.90;;;;;;5050915;28;20025;-73
2023/06/28 08:20:43;;;;;;;3.22;2.60;;;18.90;99.90;;;;;;5051556;28;20033;-74
2023/06/28 08:23:10;;;;;;;3.10;2.13;;;19.00;99.90;;;;;;5050782;28;20423;-73
2023/06/28 08:25:35;;;;;;;2.47;2.28;;;19.00;99.90;;;;;;5049917;28;20025;-72
2023/06/28 08:28:01;;;;;;;3.35;2.33;;;19.00;99.90;;;;;;5050633;28;20047;-74
2023/06/28 08:30:27;;;;;;;5.68;2.50;;;19.00;99.90;;;;;;5051215;28;20124;-74
2023/06/28 08:32:53;;;;;;;3.53;2.17;;;19.00;99.90;;;;;;5051141;28;20331;-76
2023/06/28 08:35:18;;;;;;;2.38;2.17;;;19.10;99.90;;;;;;5050858;28;20084;-74
2023/06/28 08:37:44;;;;;;;3.50;2.33;;;19.10;99.90;;;;;;5049937;28;20402;-74
2023/06/28 08:40:11;;;;;;;3.47;3.03;;;19.10;99.90;;;;;;5047352;28;20041;-74
2023/06/28 08:42:40;;;;;;;5.32;2.80;;;19.20;99.90;;;;;;5051500;28;20139;-74
2023/06/28 08:45:07;;;;;;;1.75;0.70;;;19.20;99.90;;;;;;5049451;28;20346;-79
2023/06/28 08:47:33;;;;;;;5.13;1.35;;;18.80;99.90;;;;;;5049158;28;20025;-76
2023/06/28 08:49:59;;;;;;;0.32;0.32;;;18.20;99.90;;;;;;5049947;28;20112;-78
2023/06/28 08:52:27;;;;;;;1.02;0.30;;;17.90;99.90;;;;;;5050441;28;20128;-78
2023/06/28 08:54:53;;;;;;;0.40;0.35;;;17.50;99.90;;;;;;5050211;28;20025;-78
2023/06/28 08:57:20;;;;;;;1.05;0.10;;;17.20;99.90;;;;;;5050069;28;20032;-76
2023/06/28 08:59:46;;;;;;;0.43;0.20;;;16.80;99.90;;;;;;5050560;28;20084;-76
2023/06/28 09:02:17;;;;;;;0.20;0.10;;;16.60;99.90;;;;;;5050119;28;20021;-76
2023/06/28 09:04:46;;;;;;;0.20;0.20;;;16.40;99.90;;;;;;5050613;28;20029;-75
2023/06/28 09:07:15;;;;;;;0.40;0.15;;;16.30;99.90;;;;;;5049895;28;20032;-77
2023/06/28 09:09:43;;;;;;;0.20;0.10;;;16.10;99.90;;;;;;5050507;28;20037;-76
2023/06/28 09:12:10;;;;;;;0.30;0.25;;;16.00;99.90;;;;;;5049617;28;20394;-76
2023/06/28 09:14:35;;;;;;;0.30;0.08;;;16.00;99.90;;;;;;5049863;28;20025;-75
2023/06/28 09:17:01;;;;;;;0.30;0.30;;;15.90;99.90;;;;;;5047398;28;20029;-75
2023/06/28 09:19:27;;;;;;;0.55;0.25;;;16.00;99.90;;;;;;5050864;28;20044;-75
2023/06/28 09:22:00;;;;;;;0.10;0.10;;;15.90;99.90;;;;;;5050305;28;20036;-74
2023/06/28 09:24:26;;;;;;;0.43;0.10;;;16.00;99.90;;;;;;5050303;28;20030;-74
2023/06/28 09:26:52;;;;;;;1.67;0.20;;;16.10;99.90;;;;;;5048626;28;20110;-73
2023/06/28 09:29:17;;;;;;;1.35;0.10;;;16.20;99.90;;;;;;5049379;28;20053;-74
2023/06/28 09:31:47;;;;;;;0.30;0.17;;;16.30;99.90;;;;;;5049803;28;20067;-73
2023/06/28 09:34:13;;;;;;;1.00;0.10;;;16.30;99.90;;;;;;5049740;28;20029;-73
2023/06/28 09:36:39;;;;;;;0.22;0.10;;;16.30;99.90;;;;;;5051054;28;20438;-73
2023/06/28 09:39:05;;;;;;;0.75;0.20;;;16.20;99.90;;;;;;5049077;28;20037;-73
2023/06/28 09:41:42;;;;;;;0.13;0.13;;;16.30;99.90;;;;;;5049996;28;20037;-73
2023/06/28 09:44:09;;;;;;;0.28;0.15;;;16.30;99.90;;;;;;5049497;28;20462;-73
2023/06/28 09:46:35;;;;;;;0.43;0.10;;;16.50;99.90;;;;;;5050064;28;20025;-73
2023/06/28 09:49:01;;;;;;;0.55;0.20;;;16.70;99.90;;;;;;5049144;28;20033;-74
2023/06/28 09:51:27;;;;;;;1.33;0.28;;;16.80;99.90;;;;;;5049018;28;20029;-73
2023/06/28 09:53:58;;;;;;;0.47;0.20;;;17.00;99.90;;;;;;5050633;28;20033;-73
2023/06/28 09:56:34;;;;;;;0.32;0.32;;;17.10;99.90;;;;;;5050159;28;20048;-73
2023/06/28 09:59:05;;;;;;;0.75;0.25;;;17.00;99.90;;;;;;5049733;28;20159;-74
2023/06/28 10:01:31;;;;;;;0.55;0.20;;;17.10;99.90;;;;;;5050216;28;20025;-73
2023/06/28 10:03:58;;;;;;;3.42;0.47;;;17.20;99.90;;;;;;5050027;28;20110;-75
2023/06/28 10:06:26;;;;;;;0.95;0.40;;;17.20;99.90;;;;;;5049514;28;20021;-74
2023/06/28 10:08:52;;;;;;;0.40;0.30;;;17.20;99.90;;;;;;5049709;28;20183;-72
2023/06/28 10:11:18;;;;;;;0.88;0.43;;;17.20;99.90;;;;;;5049247;28;20032;-73
2023/06/28 10:13:48;;;;;;;0.82;0.40;;;17.20;99.90;;;;;;5048427;28;20053;-72
2023/06/28 10:16:17;;;;;;;1.63;0.55;;;17.10;99.90;;;;;;5049063;28;20021;-73
2023/06/28 10:18:44;;;;;;;1.73;0.60;;;17.20;99.90;;;;;;5049312;28;20037;-73
2023/06/28 10:21:10;;;;;;;0.73;0.40;;;17.20;99.90;;;;;;5049099;28;20381;-73
2023/06/28 10:23:39;;;;;;;1.65;0.50;;;17.10;99.90;;;;;;5048005;28;20108;-73
2023/06/28 10:26:05;;;;;;;0.55;0.43;;;17.20;99.90;;;;;;5049432;28;20026;-73
2023/06/28 10:28:35;;;;;;;0.90;0.50;;;17.20;99.90;;;;;;5048589;28;20475;-73
2023/06/28 10:31:04;;;;;;;0.75;0.40;;;17.10;99.90;;;;;;5047467;28;20060;-75
2023/06/28 10:33:31;;;;;;;0.90;0.40;;;17.00;99.90;;;;;;5049324;28;20064;-75
2023/06/28 10:36:00;;;;;;;1.38;0.80;;;17.00;99.90;;;;;;5049024;28;20108;-78
2023/06/28 10:38:45;;;;;;;1.17;0.40;;;17.00;99.90;;;;;;5049197;28;20076;-76
2023/06/28 10:41:15;;;;;;;1.05;0.60;;;17.00;99.90;;;;;;5048495;28;20055;-74
2023/06/28 10:43:41;;;;;;;2.40;0.73;;;16.90;99.90;;;;;;5049086;28;20032;-75
2023/06/28 10:46:26;;;;;;;2.38;0.77;;;16.70;99.90;;;;;;5046889;28;20464;-75
2023/06/28 10:48:58;;;;;;;0.70;0.52;;;16.60;99.90;;;;;;5048652;28;20186;-74
2023/06/28 10:51:29;;;;;;;1.85;0.60;;;16.60;99.90;;;;;;5051476;28;20071;-74
2023/06/28 10:54:15;;;;;;;2.70;0.52;;;16.50;99.90;;;;;;5052441;28;20028;-75
2023/06/28 10:56:48;;;;;;;0.82;0.40;;;16.40;99.90;;;;;;5052150;28;20359;-74
2023/06/28 10:59:14;;;;;;;1.70;0.50;;;16.40;99.90;;;;;;5051721;28;20041;-74
2023/06/28 11:01:49;;;;;;;3.92;0.47;;;16.40;99.90;;;;;;5050958;28;20374;-73
2023/06/28 11:04:22;;;;;;;2.08;0.40;;;16.50;99.90;;;;;;5052137;28;20060;-73
2023/06/28 11:07:15;;;;;;;2.22;0.40;;;16.50;99.90;;;;;;5052818;28;20059;-73
2023/06/28 11:10:01;;;;;;;0.45;0.17;;;16.50;99.90;;;;;;5047680;28;20043;-73
2023/06/28 11:12:27;;;;;;;2.92;0.60;;;16.60;99.90;;;;;;5052507;28;20112;-73
2023/06/28 11:15:07;;;;;;;4.45;0.80;;;16.50;99.90;;;;;;5052416;28;20052;-72
2023/06/28 11:17:33;;;;;;;1.85;0.50;;;16.60;99.90;;;;;;5052534;28;20355;-73
2023/06/28 11:20:10;;;;;;;1.25;0.90;;;16.60;99.90;;;;;;5052068;28;20132;-72
2023/06/28 11:22:53;;;;;;;2.80;0.70;;;16.70;99.90;;;;;;5052986;28;20151;-73
2023/06/28 11:25:29;;;;;;;2.15;0.93;;;17.00;99.90;;;;;;5052227;28;20079;-72
2023/06/28 11:27:58;;;;;;;1.23;0.68;;;17.20;99.90;;;;;;5052140;28;20199;-72
2023/06/28 11:30:46;;;;;;;1.92;1.77;;;17.50;99.90;;;;;;5052191;28;20055;-72
2023/06/28 11:33:12;;;;;;;3.60;2.55;;;17.90;99.90;;;;;;5051679;28;20411;-72
2023/06/28 11:35:38;;;;;;;2.55;1.00;;;18.20;99.90;;;;;;5052458;28;20056;-72
2023/06/28 11:38:05;;;;;;;3.00;0.60;;;18.40;99.90;;;;;;5050415;28;20037;-73
2023/06/28 11:40:30;;;;;;;0.93;0.70;;;18.40;99.90;;;;;;5052412;28;20075;-72
2023/06/28 11:42:56;;;;;;;4.68;0.80;;;18.40;99.90;;;;;;5051989;28;20396;-72
2023/06/28 11:45:22;;;;;;;0.80;0.60;;;18.30;99.90;;;;;;5051404;28;20099;-72
2023/06/28 11:47:48;;;;;;;0.73;0.40;;;18.40;99.90;;;;;;5052134;28;20035;-72
2023/06/28 11:50:15;;;;;;;0.32;0.32;;;18.50;99.90;;;;;;5051524;28;20025;-73
2023/06/28 11:52:46;;;;;;;1.77;0.80;;;18.50;99.90;;;;;;5052315;28;20083;-72
2023/06/28 11:55:15;;;;;;;2.08;0.70;;;18.70;99.90;;;;;;5051490;28;20132;-73
2023/06/28 11:57:47;;;;;;;0.70;0.65;;;18.80;99.90;;;;;;5051946;28;20064;-72
2023/06/28 12:00:15;;;;;;;1.83;0.50;;;18.80;99.90;;;;;;5051017;28;20087;-72
2023/06/28 12:02:51;;;;;;;3.03;0.77;;;18.80;99.90;;;;;;5051581;28;20289;-72
2023/06/28 12:05:21;;;;;;;0.70;0.60;;;19.00;99.90;;;;;;5051389;28;20060;-72
2023/06/28 12:07:47;;;;;;;5.20;1.30;;;19.00;99.90;;;;;;5051661;28;20079;-72
2023/06/28 12:10:14;;;;;;;1.35;0.60;;;19.10;99.90;;;;;;5051113;28;20029;-72
2023/06/28 12:12:41;;;;;;;1.33;0.77;;;19.10;99.90;;;;;;5051733;28;20025;-72
2023/06/28 12:15:12;;;;;;;1.70;0.70;;;19.40;99.90;;;;;;5051099;28;20044;-73
2023/06/28 12:17:39;;;;;;;1.92;0.70;;;19.50;99.90;;;;;;5051336;28;20313;-72
2023/06/28 12:20:06;;;;;;;0.88;0.65;;;19.60;99.90;;;;;;5050870;28;20033;-74
2023/06/28 12:22:46;;;;;;;0.95;0.70;;;19.40;99.90;;;;;;5051600;28;20041;-72
2023/06/28 12:25:12;;;;;;;0.73;0.63;;;19.40;99.90;;;;;;5051059;28;20501;-72
2023/06/28 12:27:41;;;;;;;2.80;0.63;;;19.50;99.90;;;;;;5051522;28;20364;-72
2023/06/28 12:30:11;;;;;;;0.88;0.57;;;19.40;99.90;;;;;;5050846;28;20537;-75
2023/06/28 12:32:47;;;;;;;0.93;0.90;;;19.30;99.90;;;;;;5051118;28;20473;-72
2023/06/28 12:35:22;;;;;;;1.05;0.65;;;19.30;99.90;;;;;;5050896;28;20021;-73
2023/06/28 12:37:55;;;;;;;3.58;0.63;;;19.30;99.90;;;;;;5051422;28;20082;-72
2023/06/28 12:40:24;;;;;;;0.95;0.60;;;19.10;99.90;;;;;;5050797;28;20045;-73
2023/06/28 12:43:09;;;;;;;2.20;0.82;;;19.10;99.90;;;;;;5051503;28;20064;-73
2023/06/28 12:45:44;;;;;;;2.03;0.80;;;19.10;99.90;;;;;;5050994;28;20300;-73
2023/06/28 12:48:10;;;;;;;2.90;0.90;;;19.00;99.90;;;;;;5050104;28;20033;-73